This is the latest recevied weather packets stored in our database for station/object DL7GAI-7. If no packets are shown the sender has not sent any weather packets the latest 10 day(s).
| Time | Temp. | Humidity | Pressure | Rain* | Wind** | Luminosity | Snow |
|---|---|---|---|---|---|---|---|
| 1776998389 | 4.44° C | 74% | 1024.4 hPa | 0 mm | 0.89 m/s, 315° | - | - |
| 1776997599 | 4.44° C | 70% | 1024.3 hPa | 0 mm | 1.79 m/s, 315° | - | - |
| 1776996783 | 4.44° C | 70% | 1024.3 hPa | 0 mm | 1.79 m/s, 315° | - | - |
| 1776995945 | 3.89° C | 74% | 1024.5 hPa | 0 mm | 0.89 m/s, 0° | - | - |
| 1776994304 | 5.56° C | 67% | 1024.4 hPa | 0 mm | 0.89 m/s, 0° | - | - |
| 1776993548 | 5.56° C | 67% | 1024.4 hPa | 0 mm | 0.89 m/s, 0° | - | - |
| 1776992763 | 5.56° C | 67% | 1024.4 hPa | 0 mm | 0.89 m/s, 0° | - | - |
| 1776991978 | 6.67° C | 64% | 1024.5 hPa | 0 mm | 1.79 m/s, 0° | - | - |
| 1776991235 | 6.67° C | 64% | 1024.5 hPa | 0 mm | 1.79 m/s, 0° | - | - |
| 1776990424 | 6.11° C | 63% | 1024.9 hPa | 0 mm | 1.79 m/s, 0° | - | - |
| 1776989630 | 6.11° C | 63% | 1024.9 hPa | 0 mm | 1.79 m/s, 0° | - | - |
| 1776988862 | 7.22° C | 53% | 1024.7 hPa | 0 mm | 0.89 m/s, 0° | - | - |
| 1776988063 | 7.22° C | 53% | 1024.7 hPa | 0 mm | 0.89 m/s, 0° | - | - |
| 1776987213 | 8.33° C | 48% | 1024.6 hPa | 0 mm | 0.89 m/s, 90° | - | - |
| 1776986413 | 8.33° C | 48% | 1024.6 hPa | 0 mm | 0.89 m/s, 90° | - | - |
| 1776985554 | 10.56° C | 41% | 1024.1 hPa | 0 mm | 0.89 m/s, 315° | - | - |
| 1776984699 | 10.56° C | 41% | 1024.1 hPa | 0 mm | 0.89 m/s, 315° | - | - |
| 1776983843 | 10.56° C | 41% | 1024.1 hPa | 0 mm | 0.89 m/s, 315° | - | - |
| 1776983058 | 12.22° C | 33% | 1023.6 hPa | 0 mm | 2.68 m/s, 0° | - | - |
| 1776982253 | 12.22° C | 33% | 1023.6 hPa | 0 mm | 2.68 m/s, 0° | - | - |
| 1776981498 | 12.78° C | 32% | 1023.5 hPa | 0 mm | 3.13 m/s, 0° | - | - |
| 1776980688 | 12.78° C | 32% | 1023.5 hPa | 0 mm | 3.13 m/s, 0° | - | - |
| 1776979829 | 10.56° C | 43% | 1023.9 hPa | 0 mm | 2.68 m/s, 45° | - | - |
| 1776978989 | 10.56° C | 43% | 1023.9 hPa | 0 mm | 2.68 m/s, 45° | - | - |
| 1776978128 | 12.78° C | 31% | 1023.2 hPa | 0 mm | 3.13 m/s, 0° | - | - |
* Rain latest hour (hover to see other rain measurements)
** Current wind speed in m/s (hover to see current wind gust speed)